Time;durP1;ratioP1;P1;durP2;ratioP2;P2;SDS_P1;SDS_P2;PMS_P1;PMS_P2;Temp;Humidity;BMP_temperature;BMP_pressure;BME280_temperature;BME280_humidity;BME280_pressure;Samples;Min_cycle;Max_cycle;Signal;HPM_P1;HPM_P2
2022/05/04 00:01:21;;;;;;;15.40;8.00;;;;;;;11.77;59.40;98378.92;106599;1277;138388;-91
2022/05/04 00:03:47;;;;;;;9.70;6.70;;;;;;;11.72;59.46;98378.21;106477;1278;24431;-91
2022/05/04 00:06:14;;;;;;;10.20;7.10;;;;;;;11.66;59.58;98381.95;106569;1277;22577;-91
2022/05/04 00:08:41;;;;;;;11.90;6.90;;;;;;;11.62;59.79;98381.73;106803;1277;137795;-91
2022/05/04 00:11:08;;;;;;;9.30;6.50;;;;;;;11.57;59.69;98378.98;106543;1277;25518;-91
2022/05/04 00:13:34;;;;;;;9.00;6.80;;;;;;;11.53;59.87;98386.21;106267;1277;137841;-91
2022/05/04 00:16:03;;;;;;;11.30;7.60;;;;;;;11.50;60.50;98390.55;106280;1277;22483;-90
2022/05/04 00:18:30;;;;;;;7.70;6.10;;;;;;;11.47;60.89;98393.29;105984;1278;139439;-87
2022/05/04 00:21:00;;;;;;;9.90;7.30;;;;;;;11.45;60.81;98400.56;106215;1277;23541;-91
2022/05/04 00:23:26;;;;;;;11.50;6.90;;;;;;;11.43;60.60;98394.31;106353;1277;22562;-91
2022/05/04 00:25:59;;;;;;;8.10;6.60;;;;;;;11.40;60.81;98393.64;106180;1277;137685;-91
2022/05/04 00:28:30;;;;;;;10.70;7.10;;;;;;;11.39;60.75;98391.98;106531;1277;24248;-91
2022/05/04 00:31:11;;;;;;;8.20;6.20;;;;;;;11.38;60.96;98392.08;106088;1278;138575;-92
2022/05/04 00:33:38;;;;;;;8.40;6.30;;;;;;;11.38;60.62;98392.46;106176;1277;25443;-90
2022/05/04 00:36:04;;;;;;;11.20;6.70;;;;;;;11.37;61.03;98396.97;106585;1275;22556;-91
2022/05/04 00:38:31;;;;;;;9.10;5.90;;;;;;;11.38;61.01;98401.86;106275;1277;138055;-92
2022/05/04 00:41:00;;;;;;;11.30;7.30;;;;;;;11.37;61.15;98408.42;106295;1278;22604;-91
2022/05/04 00:43:27;;;;;;;12.90;7.80;;;;;;;11.31;62.01;98406.69;106034;1277;137972;-92
2022/05/04 00:45:54;;;;;;;10.10;8.00;;;;;;;11.22;62.64;98404.17;106141;1277;22603;-91
2022/05/04 00:48:23;;;;;;;10.10;7.70;;;;;;;11.17;62.80;98404.60;106574;1277;24386;-91
2022/05/04 00:50:54;;;;;;;10.70;7.10;;;;;;;11.16;63.22;98397.70;106116;1277;138334;-90
2022/05/04 00:53:24;;;;;;;9.30;6.70;;;;;;;11.17;62.15;98396.27;106302;1277;22601;-90
2022/05/04 00:55:53;;;;;;;11.30;6.70;;;;;;;11.18;62.31;98390.05;106172;1277;137502;-91
2022/05/04 01:00:54;;;;;;;11.20;7.10;;;;;;;11.17;62.07;98392.16;106099;1277;138483;-91
2022/05/04 01:03:21;;;;;;;14.80;8.10;;;;;;;11.16;62.20;98399.06;106387;1277;23495;-91
2022/05/04 01:05:56;;;;;;;11.70;7.30;;;;;;;11.14;62.39;98402.38;106510;1277;23923;-91
2022/05/04 01:08:23;;;;;;;9.80;6.70;;;;;;;11.13;62.27;98407.30;106366;1277;137821;-91
2022/05/04 01:10:58;;;;;;;10.90;6.50;;;;;;;11.12;62.00;98409.52;106431;1277;24233;-91
2022/05/04 01:13:24;;;;;;;9.10;6.60;;;;;;;11.11;61.51;98408.74;106323;1278;137725;-91
2022/05/04 01:15:52;;;;;;;10.60;7.30;;;;;;;11.09;62.29;98407.95;106292;1277;22763;-91
2022/05/04 01:18:24;;;;;;;10.60;6.60;;;;;;;11.07;61.91;98407.98;106213;1278;22566;-91
2022/05/04 01:20:53;;;;;;;11.00;7.30;;;;;;;11.05;62.18;98407.95;106435;1277;137637;-91
2022/05/04 01:23:26;;;;;;;9.70;6.90;;;;;;;11.02;62.61;98409.93;106711;1277;22552;-91
2022/05/04 01:25:53;;;;;;;10.00;6.70;;;;;;;11.01;62.38;98411.01;106363;1277;137701;-91
2022/05/04 01:28:26;;;;;;;9.90;7.40;;;;;;;10.98;62.61;98418.36;106434;1277;23475;-91
2022/05/04 01:30:53;;;;;;;13.60;8.40;;;;;;;10.95;62.46;98418.53;106494;1277;138694;-91
2022/05/04 01:33:20;;;;;;;11.80;7.70;;;;;;;10.94;62.29;98421.41;106310;1278;25301;-92
2022/05/04 01:35:50;;;;;;;11.00;9.10;;;;;;;10.93;62.82;98422.32;106323;1277;22736;-91
2022/05/04 01:38:16;;;;;;;11.30;8.20;;;;;;;10.90;62.92;98417.86;106332;1277;137695;-91
2022/05/04 01:40:43;;;;;;;9.90;8.00;;;;;;;10.89;62.78;98413.16;106421;1277;23565;-92
2022/05/04 01:43:09;;;;;;;14.50;7.60;;;;;;;10.89;63.03;98413.75;106024;1277;138201;-91
2022/05/04 01:45:36;;;;;;;11.70;7.90;;;;;;;10.88;63.13;98413.95;106556;1277;25263;-92
2022/05/04 01:48:05;;;;;;;12.10;7.90;;;;;;;10.87;63.34;98410.19;106224;1278;24341;-92
2022/05/04 01:50:31;;;;;;;9.50;7.60;;;;;;;10.84;63.55;98408.23;106352;1277;137714;-91
2022/05/04 01:52:59;;;;;;;10.80;7.70;;;;;;;10.86;63.54;98411.91;106501;1277;25295;-91
2022/05/04 01:55:38;;;;;;;11.30;7.90;;;;;;;10.87;63.47;98411.12;106538;1277;138771;-91
2022/05/04 01:58:12;;;;;;;14.20;7.40;;;;;;;10.90;63.79;98419.80;106179;1277;23338;-91
2022/05/04 02:00:39;;;;;;;12.50;8.10;;;;;;;10.91;63.50;98427.40;106709;1277;137770;-91
2022/05/04 02:03:06;;;;;;;12.80;8.70;;;;;;;10.91;63.37;98428.34;106639;1277;22888;-91
2022/05/04 02:05:35;;;;;;;13.60;8.20;;;;;;;10.90;63.36;98430.28;106485;1277;22560;-91
2022/05/04 02:08:07;;;;;;;12.60;8.50;;;;;;;10.87;63.16;98431.48;106337;1277;137654;-91
2022/05/04 02:10:33;;;;;;;10.40;7.40;;;;;;;10.86;63.68;98435.00;106704;1277;22556;-91
2022/05/04 02:12:59;;;;;;;9.60;7.60;;;;;;;10.81;63.90;98440.17;106287;1277;138393;-90
2022/05/04 02:15:35;;;;;;;12.30;7.70;;;;;;;10.73;65.30;98441.50;106630;1277;22567;-91
2022/05/04 02:18:07;;;;;;;13.50;8.80;;;;;;;10.59;66.03;98442.67;106567;1277;23230;-92
2022/05/04 02:20:35;;;;;;;11.30;7.80;;;;;;;10.48;66.12;98443.78;106456;1277;137731;-91
2022/05/04 02:23:07;;;;;;;11.30;7.80;;;;;;;10.44;66.34;98446.49;106650;1277;22557;-91
2022/05/04 02:25:37;;;;;;;13.80;8.10;;;;;;;10.43;66.70;98451.00;106506;1277;139013;-91
2022/05/04 02:28:09;;;;;;;9.90;7.40;;;;;;;10.44;67.12;98452.69;106348;1277;22677;-91
2022/05/04 02:30:35;;;;;;;12.30;7.90;;;;;;;10.43;67.03;98461.35;106664;1277;138599;-92
2022/05/04 02:33:03;;;;;;;8.20;6.40;;;;;;;10.39;66.84;98461.92;106348;1277;25455;-91
2022/05/04 02:38:16;;;;;;;12.90;7.10;;;;;;;10.45;66.04;98474.86;106507;1277;137581;-90
2022/05/04 02:40:42;;;;;;;11.70;7.00;;;;;;;10.48;65.97;98472.70;106484;1277;25337;-89
2022/05/04 02:43:08;;;;;;;10.20;6.90;;;;;;;10.54;65.15;98470.57;106238;1277;138776;-91
2022/05/04 02:45:35;;;;;;;9.70;6.60;;;;;;;10.59;64.81;98470.83;106699;1280;22566;-91
2022/05/04 02:48:02;;;;;;;8.40;6.30;;;;;;;10.66;64.38;98466.32;106677;1277;22608;-90
2022/05/04 02:50:32;;;;;;;10.00;6.60;;;;;;;10.72;64.02;98470.95;106306;1277;137466;-91
2022/05/04 02:53:00;;;;;;;11.20;6.30;;;;;;;10.77;63.55;98465.16;106556;1277;22661;-88
2022/05/04 02:55:27;;;;;;;8.20;5.30;;;;;;;10.83;63.16;98459.54;106718;1277;138364;-89
2022/05/04 02:57:53;;;;;;;9.30;5.40;;;;;;;10.88;62.57;98449.95;106562;1277;22545;-91
2022/05/04 03:00:19;;;;;;;6.90;5.50;;;;;;;10.88;62.91;98440.43;106420;1277;23914;-91
2022/05/04 03:02:56;;;;;;;9.80;5.50;;;;;;;10.93;62.68;98438.39;106270;1277;137285;-91
2022/05/04 03:05:32;;;;;;;9.40;5.90;;;;;;;10.94;62.21;98436.63;106628;1277;25347;-92
2022/05/04 03:07:59;;;;;;;8.90;4.80;;;;;;;10.97;62.08;98439.55;106446;1277;137490;-91
2022/05/04 03:10:28;;;;;;;7.30;5.40;;;;;;;10.99;62.06;98442.67;106723;1277;23584;-92
2022/05/04 03:12:54;;;;;;;8.00;5.40;;;;;;;10.99;62.09;98437.02;106441;1277;137494;-91
2022/05/04 03:15:24;;;;;;;7.80;5.40;;;;;;;11.00;61.85;98437.91;106496;1277;23519;-91
2022/05/04 03:17:51;;;;;;;6.90;5.10;;;;;;;11.00;62.12;98431.37;106498;1277;23249;-92
2022/05/04 03:20:17;;;;;;;8.10;5.60;;;;;;;11.00;61.86;98431.70;106127;1277;137743;-91
2022/05/04 03:22:46;;;;;;;8.90;5.30;;;;;;;10.99;61.78;98431.39;106645;1277;25311;-93
2022/05/04 03:25:16;;;;;;;11.60;5.40;;;;;;;10.98;61.90;98442.46;106588;1277;137801;-93
2022/05/04 03:27:43;;;;;;;11.40;5.40;;;;;;;10.96;62.22;98449.41;106327;1278;22552;-91
2022/05/04 03:30:10;;;;;;;7.40;5.50;;;;;;;10.96;62.41;98453.82;106644;1277;25517;-90
2022/05/04 03:32:36;;;;;;;10.50;5.90;;;;;;;10.96;62.85;98456.33;106359;1277;137523;-90
2022/05/04 03:35:03;;;;;;;12.40;5.80;;;;;;;10.95;63.12;98460.83;106626;1277;24508;-91
2022/05/04 03:37:29;;;;;;;10.20;5.60;;;;;;;10.92;63.09;98460.23;106086;1278;137693;-93
2022/05/04 03:39:56;;;;;;;6.60;5.40;;;;;;;10.94;62.53;98462.29;106618;1277;25257;-91
2022/05/04 03:42:25;;;;;;;;;;;;;;;10.95;62.03;98466.71;106654;1278;22544;-92
2022/05/04 03:44:51;;;;;;;8.70;5.20;;;;;;;10.94;62.38;98467.36;106557;1278;124029;-92
2022/05/04 03:47:17;;;;;;;11.50;5.70;;;;;;;10.96;62.52;98470.74;106809;1277;22582;-91
2022/05/04 03:49:44;;;;;;;7.80;4.90;;;;;;;10.97;62.30;98472.48;106759;1277;137868;-91
2022/05/04 03:52:11;;;;;;;7.90;5.10;;;;;;;10.99;62.40;98473.98;106590;1278;23906;-92
2022/05/04 03:54:37;;;;;;;6.90;5.10;;;;;;;11.01;62.53;98468.11;106535;1277;137699;-92
2022/05/04 03:57:10;;;;;;;7.80;4.90;;;;;;;11.00;62.47;98472.58;106409;1277;22545;-91
2022/05/04 03:59:36;;;;;;;8.20;5.10;;;;;;;11.02;63.32;98477.40;106549;1277;22598;-92
2022/05/04 04:02:03;;;;;;;10.50;5.30;;;;;;;11.04;63.56;98478.95;106455;1278;137817;-92
2022/05/04 04:04:29;;;;;;;9.10;4.90;;;;;;;11.07;63.36;98482.33;106577;1277;25270;-93
2022/05/04 04:06:55;;;;;;;7.30;4.80;;;;;;;11.11;62.90;98485.39;106356;1277;137936;-92
2022/05/04 04:09:22;;;;;;;8.80;5.20;;;;;;;11.15;63.41;98485.73;106592;1277;24255;-90
2022/05/04 04:11:48;;;;;;;9.50;5.60;;;;;;;11.22;63.39;98486.42;106808;1278;22570;-90
2022/05/04 04:14:14;;;;;;;14.80;6.90;;;;;;;11.25;63.22;98492.11;106562;1277;137527;-91
2022/05/04 04:16:40;;;;;;;13.30;6.20;;;;;;;11.29;63.64;98498.33;106543;1277;25263;-92
2022/05/04 04:19:09;;;;;;;14.20;6.60;;;;;;;11.29;63.91;98507.05;106466;1278;138144;-92
2022/05/04 04:24:15;;;;;;;12.90;6.40;;;;;;;11.27;63.63;98519.17;106297;1281;24243;-91
2022/05/04 04:26:41;;;;;;;9.80;6.80;;;;;;;11.25;64.24;98530.20;106198;1278;137946;-90
2022/05/04 04:29:08;;;;;;;7.80;5.60;;;;;;;11.23;64.91;98533.66;106481;1277;22499;-91
2022/05/04 04:31:34;;;;;;;8.90;6.30;;;;;;;11.21;64.72;98533.63;106268;1278;137531;-91
2022/05/04 04:34:01;;;;;;;8.30;6.10;;;;;;;11.19;64.82;98534.26;106382;1278;22642;-92
2022/05/04 04:36:28;;;;;;;12.60;6.30;;;;;;;11.19;65.30;98537.59;106834;1277;22582;-91
2022/05/04 04:38:54;;;;;;;11.30;5.70;;;;;;;11.22;65.01;98532.68;106579;1277;137844;-92
2022/05/04 04:41:20;;;;;;;12.50;5.40;;;;;;;11.27;64.89;98536.45;106447;1277;23961;-91
2022/05/04 04:43:47;;;;;;;9.00;4.90;;;;;;;11.34;63.82;98538.21;106144;1278;137878;-91
2022/05/04 04:46:13;;;;;;;10.30;5.50;;;;;;;11.39;64.06;98534.36;106673;1277;24440;-91
2022/05/04 04:48:39;;;;;;;9.50;5.10;;;;;;;11.43;64.42;98530.98;106588;1277;138239;-92
2022/05/04 04:51:05;;;;;;;10.50;5.30;;;;;;;11.47;64.69;98525.54;106797;1277;25521;-93
2022/05/04 04:53:32;;;;;;;6.40;5.50;;;;;;;11.51;64.33;98523.25;106470;1278;24146;-92
2022/05/04 04:55:58;;;;;;;9.30;5.20;;;;;;;11.55;64.24;98519.51;106055;1278;137427;-91
2022/05/04 04:58:25;;;;;;;6.30;4.70;;;;;;;11.61;64.58;98523.34;106461;1280;22553;-90
2022/05/04 05:00:52;;;;;;;8.10;4.50;;;;;;;11.66;64.58;98518.17;106559;1277;137645;-91
2022/05/04 05:03:18;;;;;;;7.40;5.10;;;;;;;11.71;64.53;98515.09;106676;1277;25258;-90
2022/05/04 05:05:44;;;;;;;9.60;5.40;;;;;;;11.75;64.59;98511.05;106519;1277;25280;-91
2022/05/04 05:08:15;;;;;;;11.90;5.00;;;;;;;11.76;64.69;98507.36;106596;1277;137593;-90
2022/05/04 05:10:41;;;;;;;7.20;5.00;;;;;;;11.79;64.76;98510.23;106506;1278;22543;-91
2022/05/04 05:13:08;;;;;;;6.40;4.90;;;;;;;11.80;64.46;98511.45;106431;1278;137848;-91
2022/05/04 05:18:17;;;;;;;6.60;5.40;;;;;;;11.83;63.87;98517.66;106805;1277;22577;-91
2022/05/04 05:20:44;;;;;;;7.50;5.50;;;;;;;11.86;63.71;98521.25;106226;1278;137726;-91
2022/05/04 05:23:11;;;;;;;9.10;4.70;;;;;;;11.93;64.35;98524.48;106628;1277;28143;-90
2022/05/04 05:25:37;;;;;;;14.80;5.00;;;;;;;12.02;64.51;98530.66;106693;1277;137595;-90
2022/05/04 05:28:05;;;;;;;11.50;5.10;;;;;;;12.12;64.41;98535.39;106831;1277;22557;-91
2022/05/04 05:30:31;;;;;;;14.00;5.10;;;;;;;12.23;64.28;98532.68;106458;1277;25420;-90
2022/05/04 05:33:00;;;;;;;17.10;6.50;;;;;;;12.33;64.36;98530.34;106687;1276;139072;-92
2022/05/04 05:35:26;;;;;;;10.90;5.30;;;;;;;12.42;64.02;98531.88;106511;1277;22550;-90
2022/05/04 05:37:53;;;;;;;10.40;5.40;;;;;;;12.50;63.45;98532.30;106389;1277;138080;-90
2022/05/04 05:40:19;;;;;;;10.10;5.50;;;;;;;12.56;62.79;98533.39;106789;1277;22560;-92
2022/05/04 05:43:00;;;;;;;9.90;5.70;;;;;;;12.60;62.42;98534.48;106662;1277;138108;-92
2022/05/04 05:45:26;;;;;;;7.80;5.40;;;;;;;12.59;62.16;98533.82;106788;1277;22688;-92
2022/05/04 05:47:52;;;;;;;13.20;6.10;;;;;;;12.59;62.16;98536.21;106524;1277;24468;-92
2022/05/04 05:50:19;;;;;;;13.80;6.20;;;;;;;12.61;62.18;98534.48;106332;1277;137777;-92
2022/05/04 05:52:45;;;;;;;10.20;5.90;;;;;;;12.65;62.05;98534.43;106760;1277;22687;-92
2022/05/04 05:55:12;;;;;;;13.80;6.30;;;;;;;12.70;62.14;98538.10;106163;1278;137997;-91
2022/05/04 05:57:39;;;;;;;14.50;6.70;;;;;;;12.77;62.12;98536.46;106360;1277;26512;-90
2022/05/04 06:00:06;;;;;;;16.40;6.50;;;;;;;12.83;62.04;98533.64;106262;1277;24351;-92
2022/05/04 06:02:38;;;;;;;11.40;6.60;;;;;;;12.91;62.19;98531.64;106083;1278;137811;-90
2022/05/04 06:05:05;;;;;;;13.80;7.10;;;;;;;12.98;62.06;98534.50;106533;1277;22544;-89
2022/05/04 06:07:31;;;;;;;14.50;6.00;;;;;;;13.04;61.79;98532.64;106234;1277;137625;-91
2022/05/04 06:09:57;;;;;;;8.80;6.10;;;;;;;13.10;61.72;98533.67;106294;1277;22550;-84
2022/05/04 06:12:23;;;;;;;10.70;7.00;;;;;;;13.16;61.18;98536.13;106165;1277;22596;-82
2022/05/04 06:14:50;;;;;;;14.90;7.70;;;;;;;13.22;61.29;98537.15;106167;1277;137765;-85
2022/05/04 06:17:16;;;;;;;9.80;6.40;;;;;;;13.28;61.27;98542.30;106791;1277;22557;-86
2022/05/04 06:19:42;;;;;;;10.10;6.80;;;;;;;13.35;61.38;98536.64;106224;1277;137569;-88
2022/05/04 06:22:08;;;;;;;10.80;6.60;;;;;;;13.42;60.69;98539.82;106338;1277;22542;-87
2022/05/04 06:24:49;;;;;;;10.20;7.30;;;;;;;13.47;60.48;98547.91;106348;1276;137809;-89
2022/05/04 06:27:15;;;;;;;11.50;6.80;;;;;;;13.54;60.39;98551.34;106105;1278;22591;-84
2022/05/04 06:35:17;;;;;;;13.10;8.20;;;;;;;13.86;60.35;98561.59;106502;1277;24680;-89
2022/05/04 06:37:43;;;;;;;14.30;7.40;;;;;;;13.98;60.20;98555.15;106089;1277;137764;-90
2022/05/04 06:40:10;;;;;;;9.70;6.70;;;;;;;14.12;59.82;98556.98;106534;1277;22585;-89
2022/05/04 06:42:36;;;;;;;13.60;6.90;;;;;;;14.24;59.59;98557.75;106229;1280;22639;-89
2022/05/04 06:45:03;;;;;;;9.70;6.90;;;;;;;14.33;59.00;98561.73;106210;1277;137910;-89
2022/05/04 06:47:30;;;;;;;9.90;6.60;;;;;;;14.40;58.96;98560.02;106198;1277;24183;-89
2022/05/04 06:49:56;;;;;;;15.70;7.30;;;;;;;14.44;58.60;98557.95;106181;1277;138336;-88
2022/05/04 06:52:24;;;;;;;11.00;7.60;;;;;;;14.45;57.61;98557.46;106371;1277;25366;-89
2022/05/04 06:54:50;;;;;;;11.30;7.30;;;;;;;14.49;57.36;98556.55;106200;1278;138693;-90
2022/05/04 06:57:17;;;;;;;12.40;7.40;;;;;;;14.56;57.16;98552.30;106223;1277;22825;-90
2022/05/04 06:59:43;;;;;;;13.90;7.20;;;;;;;14.65;56.62;98551.48;106271;1277;24335;-87
2022/05/04 07:02:10;;;;;;;19.00;7.60;;;;;;;14.76;56.56;98551.40;106270;1277;138352;-87
2022/05/04 07:04:37;;;;;;;15.80;7.80;;;;;;;14.87;56.09;98554.16;106295;1277;22554;-89
2022/05/04 07:07:04;;;;;;;18.50;7.10;;;;;;;15.00;56.39;98551.78;106409;1277;138256;-88
2022/05/04 07:09:30;;;;;;;21.50;7.30;;;;;;;15.08;55.65;98549.45;106194;1277;24268;-88
2022/05/04 07:11:58;;;;;;;23.40;9.00;;;;;;;15.14;55.69;98551.26;106193;1277;22573;-90
2022/05/04 07:14:24;;;;;;;16.30;8.50;;;;;;;15.23;55.11;98549.45;106118;1277;137931;-89
2022/05/04 07:16:50;;;;;;;18.60;8.60;;;;;;;15.28;53.99;98552.14;106325;1277;23271;-89
2022/05/04 07:19:17;;;;;;;13.50;7.30;;;;;;;15.32;53.62;98549.23;105969;1277;137790;-90
2022/05/04 07:21:45;;;;;;;14.90;7.40;;;;;;;15.46;52.86;98550.89;106195;1277;22571;-89
2022/05/04 07:24:11;;;;;;;13.10;7.10;;;;;;;15.56;52.03;98551.70;106472;1278;25443;-88
2022/05/04 07:26:39;;;;;;;11.80;6.70;;;;;;;15.65;52.02;98551.15;106207;1277;137566;-89
2022/05/04 07:29:06;;;;;;;15.00;6.90;;;;;;;15.70;51.16;98552.30;106414;1277;22655;-89
2022/05/04 07:31:32;;;;;;;11.50;6.20;;;;;;;15.77;51.31;98554.23;106806;1277;138235;-88
2022/05/04 07:33:59;;;;;;;13.10;7.10;;;;;;;15.85;51.01;98560.16;106265;1277;24259;-89
2022/05/04 07:36:25;;;;;;;17.10;7.00;;;;;;;15.95;51.01;98558.55;106276;1277;22604;-89
2022/05/04 07:38:52;;;;;;;22.50;6.30;;;;;;;16.06;50.88;98562.86;106104;1278;138269;-89
2022/05/04 07:44:01;;;;;;;7.40;5.40;;;;;;;16.32;50.21;98561.09;106526;1276;137885;-89
2022/05/04 07:46:27;;;;;;;9.20;5.50;;;;;;;16.43;49.46;98558.95;106409;1278;22724;-89
2022/05/04 07:48:55;;;;;;;8.80;6.10;;;;;;;16.55;49.27;98562.27;106321;1276;137698;-89
2022/05/04 07:51:21;;;;;;;10.70;5.70;;;;;;;16.66;48.97;98565.62;106363;1277;22547;-89
2022/05/04 07:53:48;;;;;;;7.80;5.60;;;;;;;16.76;48.65;98564.09;106200;1277;22644;-89
2022/05/04 07:56:14;;;;;;;11.10;6.20;;;;;;;16.85;47.87;98563.20;106479;1277;137423;-87
2022/05/04 07:58:40;;;;;;;9.10;5.10;;;;;;;16.93;47.38;98560.83;106723;1277;22582;-90
2022/05/04 08:06:41;;;;;;;8.70;5.70;;;;;;;17.32;47.82;98563.22;106416;1277;22723;-89
2022/05/04 08:09:07;;;;;;;10.80;5.90;;;;;;;17.43;47.00;98569.41;106193;1277;137458;-88
2022/05/04 08:11:33;;;;;;;9.30;7.10;;;;;;;17.50;46.41;98566.71;106172;1277;22589;-88
2022/05/04 08:13:59;;;;;;;9.00;7.00;;;;;;;17.58;46.24;98571.77;105615;1277;138282;-89
2022/05/04 08:16:26;;;;;;;14.10;7.50;;;;;;;17.63;45.39;98570.02;106105;1275;24351;-89
2022/05/04 08:18:53;;;;;;;11.90;8.00;;;;;;;17.68;45.49;98568.66;106222;1277;137973;-88
2022/05/04 08:21:19;;;;;;;14.40;8.10;;;;;;;17.74;45.80;98569.92;106245;1278;22837;-88
2022/05/04 08:23:45;;;;;;;8.10;5.90;;;;;;;17.81;45.66;98568.64;106412;1277;22576;-88
2022/05/04 08:26:12;;;;;;;8.70;6.80;;;;;;;17.93;45.30;98564.05;106094;1277;137613;-89
2022/05/04 08:28:39;;;;;;;13.00;6.50;;;;;;;18.03;45.03;98568.46;106146;1278;22675;-88
2022/05/04 08:31:05;;;;;;;10.60;5.90;;;;;;;18.13;45.85;98566.92;106064;1277;137817;-88
2022/05/04 08:33:32;;;;;;;10.10;6.50;;;;;;;18.25;45.87;98564.09;106262;1277;22573;-89
2022/05/04 08:35:58;;;;;;;9.90;6.50;;;;;;;18.36;45.60;98564.96;105968;1277;336091;-87
2022/05/04 08:38:24;;;;;;;10.70;6.10;;;;;;;18.47;45.72;98566.11;106465;1277;138259;-88
2022/05/04 08:40:55;;;;;;;8.30;6.60;;;;;;;18.55;44.67;98559.11;106449;1277;22626;-88
2022/05/04 08:43:26;;;;;;;7.30;6.20;;;;;;;18.64;44.36;98556.77;106275;1277;137678;-89
2022/05/04 08:45:53;;;;;;;10.10;5.80;;;;;;;18.73;44.14;98566.61;106314;1277;24323;-89
2022/05/04 08:48:22;;;;;;;10.10;5.70;;;;;;;18.78;43.96;98565.53;106053;1277;25546;-88
2022/05/04 08:50:50;;;;;;;6.90;5.20;;;;;;;18.86;43.18;98567.69;106062;1277;138445;-88
2022/05/04 08:53:17;;;;;;;8.00;5.00;;;;;;;18.92;43.10;98569.73;106018;1277;22541;-88
2022/05/04 08:55:44;;;;;;;6.10;5.10;;;;;;;19.00;42.85;98566.43;105949;1277;137579;-88
2022/05/04 08:58:10;;;;;;;7.50;5.20;;;;;;;19.10;43.03;98569.88;106406;1277;25611;-88
2022/05/04 09:00:37;;;;;;;7.30;5.50;;;;;;;19.21;42.90;98565.96;106229;1277;24358;-88
2022/05/04 09:03:03;;;;;;;5.90;5.10;;;;;;;19.29;42.15;98566.61;105870;1277;137585;-88
2022/05/04 09:05:53;;;;;;;6.60;5.30;;;;;;;19.30;42.27;98566.76;106110;1277;22764;-88
2022/05/04 09:08:19;;;;;;;7.40;5.50;;;;;;;19.31;41.71;98569.61;106320;1277;137480;-85
2022/05/04 09:10:46;;;;;;;8.10;5.30;;;;;;;19.28;41.44;98570.65;106163;1277;22563;-87
2022/05/04 09:13:12;;;;;;;6.60;5.20;;;;;;;19.36;41.37;98567.05;106368;1277;137834;-87
2022/05/04 09:15:40;;;;;;;7.80;5.10;;;;;;;19.44;41.32;98562.73;105995;1277;22736;-86
2022/05/04 09:18:16;;;;;;;7.50;4.40;;;;;;;19.55;40.88;98566.38;106335;1277;22648;-88
2022/05/04 09:20:48;;;;;;;7.60;4.90;;;;;;;19.66;39.88;98568.77;105942;1277;137875;-87
2022/05/04 09:23:30;;;;;;;7.90;5.20;;;;;;;19.77;39.60;98563.38;106503;1277;22548;-87
2022/05/04 09:26:05;;;;;;;6.10;4.70;;;;;;;19.90;39.94;98561.31;106151;1277;138147;-87
2022/05/04 09:28:32;;;;;;;8.40;4.40;;;;;;;20.05;39.90;98563.77;106194;1277;22559;-89
2022/05/04 09:31:14;;;;;;;5.70;4.90;;;;;;;20.23;38.62;98563.09;106164;1277;137639;-87
2022/05/04 09:33:41;;;;;;;8.50;4.40;;;;;;;20.39;37.83;98567.71;106357;1278;22585;-86
2022/05/04 09:36:07;;;;;;;5.70;5.10;;;;;;;20.53;37.33;98566.30;106256;1277;22541;-88
2022/05/04 09:47:17;;;;;;;6.30;4.80;;;;;;;21.18;36.29;98557.73;106465;1277;25787;-86
2022/05/04 09:49:46;;;;;;;10.70;5.30;;;;;;;21.37;36.45;98555.84;106341;1277;137635;-87
2022/05/04 09:52:14;;;;;;;6.00;5.40;;;;;;;21.50;35.64;98556.95;106358;1277;24819;-86
2022/05/04 09:54:40;;;;;;;6.40;4.60;;;;;;;21.59;35.64;98555.88;106163;1277;22610;-87
2022/05/04 09:57:07;;;;;;;6.90;5.30;;;;;;;21.63;34.92;98549.14;106759;1277;137517;-87
2022/05/04 09:59:36;;;;;;;6.50;4.50;;;;;;;21.69;35.07;98539.66;106393;1277;25388;-89
2022/05/04 10:02:04;;;;;;;;;;;;;;;21.81;35.73;98541.78;106538;1277;137652;-87
2022/05/04 10:04:33;;;;;;;6.80;4.40;;;;;;;21.90;35.09;98541.42;106312;1277;22736;-87
2022/05/04 10:07:00;;;;;;;9.60;4.90;;;;;;;22.01;34.95;98541.11;106604;1277;137748;-85
2022/05/04 10:09:27;;;;;;;7.10;3.90;;;;;;;22.06;34.57;98539.32;106319;1277;22578;-87
2022/05/04 10:11:58;;;;;;;4.90;4.10;;;;;;;22.10;34.70;98535.74;106413;1277;24525;-87
2022/05/04 10:14:27;;;;;;;7.50;4.50;;;;;;;22.25;34.44;98536.14;106376;1277;137974;-87
2022/05/04 10:17:13;;;;;;;7.80;4.70;;;;;;;22.41;34.16;98527.50;106409;1276;22573;-87
2022/05/04 10:19:56;;;;;;;6.80;4.80;;;;;;;22.65;33.90;98528.45;106471;1277;138287;-87
2022/05/04 10:22:34;;;;;;;5.90;4.50;;;;;;;22.85;33.05;98527.52;106557;1277;22563;-87
2022/05/04 10:25:01;;;;;;;7.40;4.70;;;;;;;22.97;33.16;98530.31;106157;1277;138019;-87
2022/05/04 10:27:28;;;;;;;5.40;4.50;;;;;;;23.06;33.40;98532.19;106205;1277;23185;-87
2022/05/04 10:32:44;;;;;;;;;;;;;;;22.82;32.58;98527.66;106459;1277;137715;-85
2022/05/04 10:35:33;;;;;;;5.40;4.60;;;;;;;22.65;32.29;98531.23;106568;1277;25325;-87
2022/05/04 10:37:59;;;;;;;7.90;4.30;;;;;;;22.36;32.72;98526.70;106102;1278;137600;-86
2022/05/04 10:40:54;;;;;;;6.90;4.00;;;;;;;22.09;32.95;98533.75;106288;1277;22563;-86
2022/05/04 10:43:37;;;;;;;6.40;4.10;;;;;;;21.80;33.59;98539.01;106309;1277;137792;-87
2022/05/04 10:46:20;;;;;;;4.90;4.00;;;;;;;21.57;34.08;98535.45;106663;1277;24270;-86
2022/05/04 10:49:05;;;;;;;5.60;4.50;;;;;;;21.36;33.94;98533.58;106970;1277;137826;-86
2022/05/04 10:51:35;;;;;;;6.90;4.40;;;;;;;21.23;34.37;98539.34;106595;1277;22597;-88
2022/05/04 10:54:09;;;;;;;8.00;4.20;;;;;;;21.10;34.04;98534.38;106521;1277;22662;-85
2022/05/04 10:56:46;;;;;;;7.10;3.70;;;;;;;21.04;33.74;98528.19;106648;1277;138013;-87
2022/05/04 10:59:24;;;;;;;5.30;4.00;;;;;;;21.15;34.24;98526.27;106457;1277;22556;-87
2022/05/04 11:02:09;;;;;;;6.10;3.70;;;;;;;21.42;34.86;98524.98;106490;1277;138178;-86
2022/05/04 11:04:37;;;;;;;7.30;4.10;;;;;;;21.60;34.49;98523.00;106580;1277;22580;-84
2022/05/04 11:07:08;;;;;;;7.80;3.80;;;;;;;21.60;33.12;98523.50;106499;1277;137917;-85
2022/05/04 11:09:39;;;;;;;8.10;4.20;;;;;;;21.46;32.75;98524.38;106666;1276;22696;-85
2022/05/04 11:12:12;;;;;;;6.30;3.50;;;;;;;21.32;32.50;98526.30;106202;1277;23350;-85
2022/05/04 11:14:39;;;;;;;;;;;;;;;21.14;32.70;98523.92;106333;1277;137599;-86
2022/05/04 11:17:15;;;;;;;11.60;6.80;;;;;;;21.02;33.09;98520.16;106159;1277;23104;-86
2022/05/04 11:19:56;;;;;;;7.90;4.20;;;;;;;21.11;32.75;98516.63;106449;1276;137902;-86
2022/05/04 11:22:23;;;;;;;11.20;4.80;;;;;;;21.34;32.78;98515.73;106767;1277;22642;-88
2022/05/04 11:24:50;;;;;;;5.40;3.40;;;;;;;21.47;32.88;98514.23;106082;1277;138737;-88
2022/05/04 11:27:19;;;;;;;8.90;3.70;;;;;;;21.53;33.07;98516.30;106242;1277;22634;-86
2022/05/04 11:29:45;;;;;;;4.50;3.70;;;;;;;21.62;33.13;98516.89;106219;1277;23957;-87
2022/05/04 11:32:17;;;;;;;6.70;3.70;;;;;;;21.71;31.91;98518.84;106307;1277;137589;-87
2022/05/04 11:34:44;;;;;;;5.50;4.00;;;;;;;21.79;31.12;98518.52;106202;1276;22703;-87
2022/05/04 11:37:14;;;;;;;5.70;3.40;;;;;;;21.75;31.16;98518.41;106335;1277;137590;-86
2022/05/04 11:39:42;;;;;;;4.00;3.60;;;;;;;21.66;32.33;98519.23;106380;1277;22544;-88
2022/05/04 11:42:09;;;;;;;5.10;3.80;;;;;;;21.78;32.18;98518.88;106529;1276;22560;-88
2022/05/04 11:44:38;;;;;;;7.00;4.00;;;;;;;22.07;31.33;98514.41;106126;1277;137518;-89
2022/05/04 11:47:08;;;;;;;4.50;3.50;;;;;;;22.42;31.00;98504.81;106166;1277;25326;-89
2022/05/04 11:49:35;;;;;;;7.30;3.70;;;;;;;22.79;31.38;98504.44;106034;1277;137702;-88
2022/05/04 11:52:04;;;;;;;4.80;3.60;;;;;;;23.13;31.04;98503.00;106014;1277;22889;-88
2022/05/04 11:54:45;;;;;;;6.20;3.90;;;;;;;23.38;30.10;98499.70;106485;1277;25283;-87
2022/05/04 11:57:14;;;;;;;7.60;3.50;;;;;;;23.44;30.06;98500.45;106361;1277;137282;-87
2022/05/04 11:59:40;;;;;;;5.90;3.50;;;;;;;23.43;30.59;98498.08;106291;1277;25429;-88
2022/05/04 12:02:08;;;;;;;4.10;3.40;;;;;;;23.43;30.17;98489.75;106515;1277;137990;-86